Time;durP1;ratioP1;P1;durP2;ratioP2;P2;SDS_P1;SDS_P2;PMS_P1;PMS_P2;Temp;Humidity;BMP_temperature;BMP_pressure;BME280_temperature;BME280_humidity;BME280_pressure;Samples;Min_cycle;Max_cycle;Signal;HPM_P1;HPM_P2
2023/03/14 00:01:11;;;;;;;;;;;11.20;99.90;;;;;;4979512;28;20345;-90
2023/03/14 00:03:44;;;;;;;;;;;11.20;99.90;;;;;;4971800;28;19936;-90
2023/03/14 00:06:17;;;;;;;;;;;11.20;99.90;;;;;;4968623;28;19926;-89
2023/03/14 00:08:47;;;;;;;;;;;11.20;99.90;;;;;;4970376;28;19929;-90
2023/03/14 00:11:20;;;;;;;;;;;11.20;99.90;;;;;;4968333;28;20393;-90
2023/03/14 00:13:51;;;;;;;;;;;11.20;99.90;;;;;;4974546;28;20419;-90
2023/03/14 00:16:21;;;;;;;;;;;11.10;99.90;;;;;;4968782;28;20401;-91
2023/03/14 00:18:52;;;;;;;;;;;11.10;99.90;;;;;;4979963;28;20021;-90
2023/03/14 00:21:26;;;;;;;;;;;11.10;99.90;;;;;;4981836;28;20312;-90
2023/03/14 00:23:59;;;;;;;;;;;11.10;99.90;;;;;;4981871;28;19940;-89
2023/03/14 00:26:26;;;;;;;;;;;11.00;99.90;;;;;;4975937;28;20873;-89
2023/03/14 00:28:54;;;;;;;;;;;11.00;99.90;;;;;;4985605;28;19934;-90
2023/03/14 00:31:21;;;;;;;;;;;11.00;99.90;;;;;;4971233;28;20393;-90
2023/03/14 00:33:55;;;;;;;;;;;10.90;99.90;;;;;;4971077;28;19931;-90
2023/03/14 00:36:26;;;;;;;;;;;;;;;;;;4972168;28;19933;-90
2023/03/14 00:38:55;;;;;;;;;;;10.90;99.90;;;;;;4984396;28;19926;-90
2023/03/14 00:41:24;;;;;;;;;;;10.90;99.90;;;;;;4973984;28;19926;-91
2023/03/14 00:43:51;;;;;;;;;;;10.80;99.90;;;;;;4983909;28;20028;-91
2023/03/14 00:46:20;;;;;;;;;;;10.80;99.90;;;;;;4969628;28;20053;-91
2023/03/14 00:48:48;;;;;;;;;;;10.80;99.90;;;;;;4968896;28;20331;-90
2023/03/14 00:51:17;;;;;;;;;;;10.80;99.90;;;;;;4969966;28;19938;-91
2023/03/14 00:53:45;;;;;;;;;;;10.70;99.90;;;;;;4972213;28;20383;-90
2023/03/14 00:56:13;;;;;;;;;;;10.70;99.90;;;;;;4987188;28;19927;-90
2023/03/14 00:58:40;;;;;;;;;;;10.70;99.90;;;;;;4968472;28;19930;-90
2023/03/14 01:01:08;;;;;;;;;;;10.70;99.90;;;;;;4969041;28;19933;-90
2023/03/14 01:03:35;;;;;;;;;;;10.70;99.90;;;;;;4969498;28;19985;-91
2023/03/14 01:06:09;;;;;;;;;;;10.70;99.90;;;;;;4969477;28;19989;-91
2023/03/14 01:08:36;;;;;;;;;;;10.60;99.90;;;;;;4975217;28;20672;-91
2023/03/14 01:11:06;;;;;;;;;;;10.60;99.90;;;;;;4975568;28;19942;-90
2023/03/14 01:13:34;;;;;;;;;;;10.60;99.90;;;;;;4970435;28;19932;-90
2023/03/14 01:16:04;;;;;;;;;;;10.50;99.90;;;;;;4965652;28;20060;-90
2023/03/14 01:18:31;;;;;;;;;;;10.50;99.90;;;;;;4974046;28;19961;-90
2023/03/14 01:21:06;;;;;;;;;;;10.50;99.90;;;;;;4969853;28;19941;-91
2023/03/14 01:23:35;;;;;;;;;;;10.50;99.90;;;;;;4963276;28;19935;-91
2023/03/14 01:26:02;;;;;;;;;;;10.50;99.90;;;;;;4970824;28;20343;-91
2023/03/14 01:28:30;;;;;;;;;;;10.40;99.90;;;;;;4966369;28;20384;-90
2023/03/14 01:31:02;;;;;;;;;;;10.40;99.90;;;;;;4968151;28;20411;-90
2023/03/14 01:33:29;;;;;;;;;;;10.40;99.90;;;;;;4965555;28;19930;-91
2023/03/14 01:35:56;;;;;;;;;;;10.40;99.90;;;;;;4973870;28;20312;-89
2023/03/14 01:38:24;;;;;;;;;;;10.40;99.90;;;;;;4970836;28;19966;-90
2023/03/14 01:40:54;;;;;;;;;;;10.40;99.90;;;;;;4965686;28;19933;-90
2023/03/14 01:43:24;;;;;;;;;;;10.30;99.90;;;;;;4969074;28;20057;-91
2023/03/14 01:46:15;;;;;;;;;;;10.30;99.90;;;;;;4990099;28;19932;-92
2023/03/14 01:48:45;;;;;;;;;;;10.30;99.90;;;;;;4966496;28;19930;-90
2023/03/14 01:51:14;;;;;;;;;;;10.30;99.90;;;;;;4977685;28;19927;-89
2023/03/14 01:53:41;;;;;;;;;;;10.30;99.90;;;;;;4969986;28;19934;-90
2023/03/14 01:56:11;;;;;;;;;;;10.30;99.90;;;;;;4969965;28;20026;-91
2023/03/14 01:58:42;;;;;;;;;;;10.20;99.90;;;;;;4974430;28;19952;-92
2023/03/14 02:01:09;;;;;;;;;;;10.20;99.90;;;;;;4960755;28;19934;-90
2023/03/14 02:03:42;;;;;;;;;;;10.20;99.90;;;;;;4974238;28;20207;-90
2023/03/14 02:06:09;;;;;;;;;;;10.20;99.90;;;;;;4966392;28;19934;-91
2023/03/14 02:08:40;;;;;;;;;;;10.10;99.90;;;;;;4967182;28;19934;-89
2023/03/14 02:11:14;;;;;;;;;;;10.10;99.90;;;;;;4967631;28;20289;-90
2023/03/14 02:13:58;;;;;;;;;;;10.10;99.90;;;;;;4971819;28;19926;-92
2023/03/14 02:16:55;;;;;;;;;;;10.10;99.90;;;;;;4958537;28;19932;-92
2023/03/14 02:19:55;;;;;;;;;;;10.10;99.90;;;;;;4961254;28;19929;-91
2023/03/14 02:22:44;;;;;;;;;;;10.00;99.90;;;;;;4968936;28;19945;-88
2023/03/14 02:25:19;;;;;;;;;;;10.00;99.90;;;;;;4965225;28;20386;-90
2023/03/14 02:27:48;;;;;;;;;;;10.00;99.90;;;;;;4969802;28;20205;-89
2023/03/14 02:30:17;;;;;;;;;;;10.00;99.90;;;;;;4981330;28;19937;-90
2023/03/14 02:32:51;;;;;;;;;;;10.00;99.90;;;;;;4973100;28;19937;-89
2023/03/14 02:35:22;;;;;;;;;;;10.00;99.90;;;;;;4963777;28;20466;-90
2023/03/14 02:37:53;;;;;;;;;;;9.90;99.90;;;;;;4987087;28;19926;-90
2023/03/14 02:40:21;;;;;;;;;;;9.90;99.90;;;;;;4969808;28;19926;-92
2023/03/14 02:42:54;;;;;;;;;;;9.90;99.90;;;;;;4967805;28;20384;-90
2023/03/14 02:45:41;;;;;;;;;;;9.90;99.90;;;;;;4987292;28;19934;-90
2023/03/14 02:48:13;;;;;;;;;;;9.80;99.90;;;;;;4968479;28;20404;-90
2023/03/14 02:50:42;;;;;;;;;;;9.80;99.90;;;;;;4964940;28;20021;-91
2023/03/14 02:53:10;;;;;;;;;;;;;;;;;;4985265;28;20033;-90
2023/03/14 02:55:37;;;;;;;;;;;9.80;99.90;;;;;;4967870;28;19926;-90
2023/03/14 02:58:25;;;;;;;;;;;9.80;99.90;;;;;;4961485;28;20353;-90
2023/03/14 03:01:00;;;;;;;;;;;9.80;99.90;;;;;;4967539;28;19934;-90
2023/03/14 03:03:27;;;;;;;;;;;9.70;99.90;;;;;;4968380;28;19930;-91
2023/03/14 03:05:55;;;;;;;;;;;9.70;99.90;;;;;;4980028;28;20033;-91
2023/03/14 03:08:23;;;;;;;;;;;9.70;99.90;;;;;;4961886;28;19927;-90
2023/03/14 03:10:54;;;;;;;;;;;9.70;99.90;;;;;;4973341;28;19933;-90
2023/03/14 03:13:27;;;;;;;;;;;9.70;99.90;;;;;;4962638;28;19926;-90
2023/03/14 03:15:57;;;;;;;;;;;9.70;99.90;;;;;;4962602;28;19934;-90
2023/03/14 03:18:25;;;;;;;;;;;9.70;99.90;;;;;;4968528;28;19992;-89
2023/03/14 03:20:52;;;;;;;;;;;9.60;99.90;;;;;;4970919;28;19934;-91
2023/03/14 03:23:19;;;;;;;;;;;9.60;99.90;;;;;;4965659;28;19926;-90
2023/03/14 03:25:48;;;;;;;;;;;9.60;99.90;;;;;;4972679;28;19934;-90
2023/03/14 03:28:15;;;;;;;;;;;9.60;99.90;;;;;;4981384;28;19941;-91
2023/03/14 03:30:43;;;;;;;;;;;9.60;99.90;;;;;;4968522;28;19993;-91
2023/03/14 03:33:10;;;;;;;;;;;9.60;99.90;;;;;;4967786;28;19934;-89
2023/03/14 03:35:44;;;;;;;;;;;9.60;99.90;;;;;;4965800;28;19973;-89
2023/03/14 03:38:11;;;;;;;;;;;9.60;99.90;;;;;;4960839;28;19942;-90
2023/03/14 03:40:39;;;;;;;;;;;9.60;99.90;;;;;;4980414;28;19975;-90
2023/03/14 03:43:08;;;;;;;;;;;9.60;99.90;;;;;;4964156;28;20037;-90
2023/03/14 03:45:37;;;;;;;;;;;9.60;99.90;;;;;;4968974;28;20138;-90
2023/03/14 03:48:06;;;;;;;;;;;9.50;99.90;;;;;;4967666;28;19930;-90
2023/03/14 03:50:33;;;;;;;;;;;9.50;99.90;;;;;;4964095;28;20241;-92
2023/03/14 03:53:01;;;;;;;;;;;9.60;99.90;;;;;;4968426;28;19926;-89
2023/03/14 03:55:28;;;;;;;;;;;9.50;99.90;;;;;;4980842;28;19934;-89
2023/03/14 03:57:55;;;;;;;;;;;9.50;99.90;;;;;;4964453;28;19994;-92
2023/03/14 04:00:22;;;;;;;;;;;9.50;99.90;;;;;;4984626;28;19930;-90
2023/03/14 04:02:49;;;;;;;;;;;9.50;99.90;;;;;;4988769;28;19926;-89
2023/03/14 04:05:18;;;;;;;;;;;9.50;99.90;;;;;;4982028;28;20432;-90
2023/03/14 04:07:54;;;;;;;;;;;9.40;99.90;;;;;;4959989;28;20032;-90
2023/03/14 04:10:26;;;;;;;;;;;9.40;99.90;;;;;;4981860;28;20346;-90
2023/03/14 04:13:06;;;;;;;;;;;9.40;99.90;;;;;;4967181;28;19961;-90
2023/03/14 04:15:35;;;;;;;;;;;9.40;99.90;;;;;;4980709;28;20010;-89
2023/03/14 04:18:08;;;;;;;;;;;9.40;99.90;;;;;;4964476;28;19957;-90
2023/03/14 04:20:36;;;;;;;;;;;9.40;99.90;;;;;;4960618;28;19973;-92
2023/03/14 04:23:04;;;;;;;;;;;9.40;99.90;;;;;;4967127;28;20320;-89
2023/03/14 04:25:32;;;;;;;;;;;9.40;99.90;;;;;;4964295;28;19965;-90
2023/03/14 04:28:03;;;;;;;;;;;9.40;99.90;;;;;;4964823;28;19930;-89
2023/03/14 04:30:31;;;;;;;;;;;9.30;99.90;;;;;;4966529;28;20427;-90
2023/03/14 04:33:15;;;;;;;;;;;9.30;99.90;;;;;;4970144;28;19934;-92
2023/03/14 04:35:47;;;;;;;;;;;9.30;99.90;;;;;;4977485;28;20600;-92
2023/03/14 04:38:15;;;;;;;;;;;9.30;99.90;;;;;;4985953;28;19926;-92
2023/03/14 04:40:46;;;;;;;;;;;9.30;99.90;;;;;;4967644;28;20029;-89
2023/03/14 04:43:14;;;;;;;;;;;9.30;99.90;;;;;;4984727;28;19946;-90
2023/03/14 04:45:48;;;;;;;;;;;9.30;99.90;;;;;;4968878;28;19935;-89
2023/03/14 04:48:15;;;;;;;;;;;9.30;99.90;;;;;;4964881;28;20254;-90
2023/03/14 04:50:46;;;;;;;;;;;9.20;99.90;;;;;;4967615;28;19930;-93
2023/03/14 04:53:14;;;;;;;;;;;9.20;99.90;;;;;;4963140;28;19939;-90
2023/03/14 04:55:49;;;;;;;;;;;9.20;99.90;;;;;;4970815;28;19941;-89
2023/03/14 04:58:17;;;;;;;;;;;9.20;99.90;;;;;;4961523;28;20448;-90
2023/03/14 05:00:45;;;;;;;;;;;9.10;99.90;;;;;;4971088;28;20017;-90
2023/03/14 05:03:32;;;;;;;;;;;9.20;99.90;;;;;;4964136;28;20017;-90
2023/03/14 05:06:35;;;;;;;;;;;9.20;99.90;;;;;;4964383;28;19934;-86
2023/03/14 05:09:02;;;;;;;;;;;9.10;99.90;;;;;;4963231;28;19926;-90
2023/03/14 05:11:49;;;;;;;;;;;9.10;99.90;;;;;;4969771;28;19941;-90
2023/03/14 05:14:32;;;;;;;;;;;9.10;99.90;;;;;;4971116;28;19930;-93
2023/03/14 05:17:19;;;;;;;;;;;9.10;99.90;;;;;;4958306;28;19926;-90
2023/03/14 05:20:08;;;;;;;;;;;9.10;99.90;;;;;;4969314;28;19977;-90
2023/03/14 05:22:54;;;;;;;;;;;9.00;99.90;;;;;;4970747;28;19956;-90
2023/03/14 05:25:39;;;;;;;;;;;9.00;99.90;;;;;;4974826;28;19937;-89
2023/03/14 05:28:35;;;;;;;;;;;9.00;99.90;;;;;;4965584;28;20030;-90
2023/03/14 05:31:30;;;;;;;;;;;9.00;99.90;;;;;;4957542;28;19927;-91
2023/03/14 05:34:25;;;;;;;;;;;9.00;99.90;;;;;;4970274;28;19930;-91
2023/03/14 05:37:05;;;;;;;;;;;9.00;99.90;;;;;;4970361;28;19935;-90
2023/03/14 05:39:42;;;;;;;;;;;9.00;99.90;;;;;;4985256;28;19933;-90
2023/03/14 05:42:31;;;;;;;;;;;9.00;99.90;;;;;;4952063;28;19953;-92
2023/03/14 05:45:32;;;;;;;;;;;8.90;99.90;;;;;;4945030;28;19930;-90
2023/03/14 05:48:13;;;;;;;;;;;8.90;99.90;;;;;;4973815;28;19926;-90
2023/03/14 05:50:51;;;;;;;;;;;8.90;99.90;;;;;;4966854;28;20185;-89
2023/03/14 05:53:28;;;;;;;;;;;8.90;99.90;;;;;;4946526;28;19969;-92
2023/03/14 05:56:33;;;;;;;;;;;8.90;99.90;;;;;;4963939;28;19927;-91
2023/03/14 05:59:16;;;;;;;;;;;8.90;99.90;;;;;;4968359;28;20068;-91
2023/03/14 06:02:00;;;;;;;;;;;8.80;99.90;;;;;;4965380;28;20425;-90
2023/03/14 06:04:30;;;;;;;;;;;8.80;99.90;;;;;;4970138;28;19933;-90
2023/03/14 06:07:00;;;;;;;;;;;8.80;99.90;;;;;;4977556;28;20309;-89
2023/03/14 06:09:27;;;;;;;;;;;8.80;99.90;;;;;;4968114;28;19930;-92
2023/03/14 06:11:57;;;;;;;;;;;8.80;99.90;;;;;;4986294;28;19926;-89
2023/03/14 06:14:24;;;;;;;;;;;8.80;99.90;;;;;;4966348;28;20286;-89
2023/03/14 06:16:55;;;;;;;;;;;8.80;99.90;;;;;;4960328;28;19926;-90
2023/03/14 06:19:26;;;;;;;;;;;8.80;99.90;;;;;;4977737;28;19941;-90
2023/03/14 06:21:53;;;;;;;;;;;8.80;99.90;;;;;;4967266;28;20150;-91
2023/03/14 06:24:20;;;;;;;;;;;8.80;99.90;;;;;;4974743;28;19956;-87
2023/03/14 06:26:50;;;;;;;;;;;8.80;99.90;;;;;;4969256;28;19977;-87
2023/03/14 06:29:17;;;;;;;;;;;8.70;99.90;;;;;;4987196;28;19933;-87
2023/03/14 06:31:46;;;;;;;;;;;8.70;99.90;;;;;;4967779;28;20392;-87
2023/03/14 06:34:16;;;;;;;;;;;8.70;99.90;;;;;;4967892;28;19981;-87
2023/03/14 06:36:45;;;;;;;;;;;8.70;99.90;;;;;;4965874;28;20025;-90
2023/03/14 06:39:12;;;;;;;;;;;8.70;99.90;;;;;;4976153;28;20423;-85
2023/03/14 06:41:43;;;;;;;;;;;8.60;99.90;;;;;;4963792;28;20024;-89
2023/03/14 06:44:11;;;;;;;;;;;8.70;99.90;;;;;;4966530;28;20091;-89
2023/03/14 06:46:39;;;;;;;;;;;8.70;99.90;;;;;;4968245;28;19933;-88
2023/03/14 06:49:06;;;;;;;;;;;8.70;99.90;;;;;;4985102;28;19926;-88
2023/03/14 06:51:34;;;;;;;;;;;8.70;99.90;;;;;;4984272;28;19930;-88
2023/03/14 06:54:05;;;;;;;;;;;8.60;99.90;;;;;;4982039;28;19981;-88
2023/03/14 06:56:32;;;;;;;;;;;8.60;99.90;;;;;;4984262;28;19926;-88
2023/03/14 06:59:04;;;;;;;;;;;8.60;99.90;;;;;;4967635;28;20021;-89
2023/03/14 07:01:34;;;;;;;;;;;8.60;99.90;;;;;;4982451;28;19942;-91
2023/03/14 07:04:07;;;;;;;;;;;8.60;99.90;;;;;;4965963;28;19941;-88
2023/03/14 07:06:36;;;;;;;;;;;8.60;99.90;;;;;;4981619;28;19954;-90
2023/03/14 07:09:06;;;;;;;;;;;8.60;99.90;;;;;;4969827;28;19961;-89
2023/03/14 07:11:37;;;;;;;;;;;8.60;99.90;;;;;;4976773;28;19944;-90
2023/03/14 07:14:05;;;;;;;;;;;8.60;99.90;;;;;;4968495;28;20374;-89
2023/03/14 07:16:32;;;;;;;;;;;8.60;99.90;;;;;;4971346;28;19932;-90
2023/03/14 07:19:00;;;;;;;;;;;8.60;99.90;;;;;;4969334;28;19934;-90
2023/03/14 07:21:27;;;;;;;;;;;8.60;99.90;;;;;;4965469;28;20550;-91
2023/03/14 07:23:54;;;;;;;;;;;8.60;99.90;;;;;;4967236;28;19973;-89
2023/03/14 07:26:23;;;;;;;;;;;8.60;99.90;;;;;;4969765;28;20418;-89
2023/03/14 07:28:52;;;;;;;;;;;8.50;99.90;;;;;;4967301;28;19927;-90
2023/03/14 07:31:20;;;;;;;;;;;8.50;99.90;;;;;;4958481;28;19930;-89
2023/03/14 07:33:47;;;;;;;;;;;8.50;99.90;;;;;;4969409;28;19926;-90
2023/03/14 07:36:14;;;;;;;;;;;8.50;99.90;;;;;;4968769;28;19930;-89
2023/03/14 07:38:44;;;;;;;;;;;8.50;99.90;;;;;;4969683;28;19941;-91
2023/03/14 07:41:34;;;;;;;;;;;8.50;99.90;;;;;;4989995;28;19933;-92
2023/03/14 07:44:37;;;;;;;;;;;8.50;99.90;;;;;;4963943;28;20210;-89
2023/03/14 07:47:04;;;;;;;;;;;8.50;99.90;;;;;;4967375;28;20021;-90
2023/03/14 07:49:30;;;;;;;;;;;8.50;99.90;;;;;;4968318;28;19930;-91
2023/03/14 07:51:57;;;;;;;;;;;8.50;99.90;;;;;;4968964;28;20017;-92
2023/03/14 07:54:24;;;;;;;;;;;8.50;99.90;;;;;;4967799;28;20298;-91
2023/03/14 07:56:53;;;;;;;;;;;8.50;99.90;;;;;;4964300;28;19965;-91
2023/03/14 07:59:20;;;;;;;;;;;8.50;99.90;;;;;;4970321;28;19932;-90
2023/03/14 08:01:47;;;;;;;;;;;8.50;99.90;;;;;;4982914;28;19926;-89
2023/03/14 08:04:14;;;;;;;;;;;8.50;99.90;;;;;;4966956;28;20799;-90
2023/03/14 08:06:41;;;;;;;;;;;8.40;99.90;;;;;;4969177;28;19981;-90
2023/03/14 08:09:07;;;;;;;;;;;8.50;99.90;;;;;;4967061;28;20207;-90
2023/03/14 08:11:34;;;;;;;;;;;8.50;99.90;;;;;;4970113;28;19930;-91
2023/03/14 08:14:06;;;;;;;;;;;8.50;99.90;;;;;;4980607;28;19937;-90
2023/03/14 08:16:33;;;;;;;;;;;8.50;99.90;;;;;;4989080;28;19930;-90
2023/03/14 08:19:00;;;;;;;;;;;8.50;99.90;;;;;;4973391;28;19930;-90
2023/03/14 08:21:26;;;;;;;;;;;8.50;99.90;;;;;;4970082;28;19926;-90
2023/03/14 08:23:53;;;;;;;;;;;8.50;99.90;;;;;;4970091;28;20294;-90
2023/03/14 08:26:20;;;;;;;;;;;8.40;99.90;;;;;;4975842;28;20348;-90
2023/03/14 08:28:47;;;;;;;;;;;8.50;99.90;;;;;;4973187;28;20396;-90
2023/03/14 08:31:15;;;;;;;;;;;8.50;99.90;;;;;;4969456;28;20377;-89
2023/03/14 08:33:42;;;;;;;;;;;8.50;99.90;;;;;;4972503;28;19930;-88
2023/03/14 08:36:10;;;;;;;;;;;8.50;99.90;;;;;;4969413;28;20022;-90
2023/03/14 08:38:36;;;;;;;;;;;8.50;99.90;;;;;;4971773;28;19977;-91
2023/03/14 08:41:07;;;;;;;;;;;8.50;99.90;;;;;;4969646;28;19934;-88
2023/03/14 08:43:33;;;;;;;;;;;8.50;99.90;;;;;;4971094;28;19957;-90
2023/03/14 08:46:01;;;;;;;;;;;8.50;99.90;;;;;;4971510;28;19930;-90
2023/03/14 08:48:30;;;;;;;;;;;8.50;99.90;;;;;;4971381;28;19965;-90
2023/03/14 08:50:57;;;;;;;;;;;8.50;99.90;;;;;;4978712;28;20263;-90
2023/03/14 08:53:24;;;;;;;;;;;8.50;99.90;;;;;;4967443;28;19926;-89
2023/03/14 08:55:53;;;;;;;;;;;8.50;99.90;;;;;;4987687;28;19934;-88
2023/03/14 08:58:20;;;;;;;;;;;8.50;99.90;;;;;;4982741;28;20369;-89
2023/03/14 09:00:47;;;;;;;;;;;8.50;99.90;;;;;;4970809;28;19930;-89
2023/03/14 09:03:14;;;;;;;;;;;8.50;99.90;;;;;;4966056;28;19926;-90
2023/03/14 09:05:42;;;;;;;;;;;8.50;99.90;;;;;;4967906;28;20328;-88
2023/03/14 09:08:09;;;;;;;;;;;8.60;99.90;;;;;;4983807;28;19989;-88
2023/03/14 09:10:36;;;;;;;;;;;8.60;99.90;;;;;;4970573;28;19926;-89
2023/03/14 09:13:02;;;;;;;;;;;8.60;99.90;;;;;;4970322;28;21266;-89
2023/03/14 09:15:29;;;;;;;;;;;8.60;99.90;;;;;;4971791;28;19961;-88
2023/03/14 09:17:56;;;;;;;;;;;8.70;99.90;;;;;;4977108;28;19926;-90
2023/03/14 09:20:23;;;;;;;;;;;8.70;99.90;;;;;;4966883;28;19938;-89
2023/03/14 09:22:51;;;;;;;;;;;8.70;99.90;;;;;;4969855;28;19973;-90
2023/03/14 09:25:18;;;;;;;;;;;8.70;99.90;;;;;;4984547;28;20382;-90
2023/03/14 09:27:45;;;;;;;;;;;8.70;99.90;;;;;;4989790;28;19958;-90
2023/03/14 09:30:12;;;;;;;;;;;8.80;99.90;;;;;;4969293;28;20400;-92
2023/03/14 09:32:39;;;;;;;;;;;8.70;99.90;;;;;;4971499;28;19926;-90
2023/03/14 09:35:06;;;;;;;;;;;8.80;99.90;;;;;;4964253;28;20273;-90
2023/03/14 09:37:33;;;;;;;;;;;8.80;99.90;;;;;;4974065;28;20306;-90
2023/03/14 09:40:07;;;;;;;;;;;8.80;99.90;;;;;;4970172;28;20290;-90
2023/03/14 09:42:37;;;;;;;;;;;8.80;99.90;;;;;;4967195;28;19934;-90
2023/03/14 09:45:06;;;;;;;;;;;8.90;99.90;;;;;;4958987;28;19934;-90
2023/03/14 09:47:33;;;;;;;;;;;8.90;99.90;;;;;;4972280;28;19927;-90
2023/03/14 09:50:01;;;;;;;;;;;8.90;99.90;;;;;;4972927;28;20393;-90
2023/03/14 09:52:30;;;;;;;;;;;8.90;99.90;;;;;;4964119;28;19962;-90
2023/03/14 09:54:59;;;;;;;;;;;8.90;99.90;;;;;;4983089;28;19972;-90
2023/03/14 09:57:28;;;;;;;;;;;8.90;99.90;;;;;;4978331;28;19936;-91
2023/03/14 09:59:56;;;;;;;;;;;9.00;99.90;;;;;;4966890;28;20017;-91
2023/03/14 10:02:24;;;;;;;;;;;8.90;99.90;;;;;;4968663;28;19945;-88
2023/03/14 10:04:52;;;;;;;;;;;9.00;99.90;;;;;;4986432;28;19926;-90
2023/03/14 10:07:20;;;;;;;;;;;9.00;99.90;;;;;;4964060;28;20475;-89
2023/03/14 10:09:49;;;;;;;;;;;9.00;99.90;;;;;;4986679;28;19926;-90
2023/03/14 10:12:17;;;;;;;;;;;9.00;99.90;;;;;;4963218;28;20029;-89
2023/03/14 10:14:49;;;;;;;;;;;9.00;99.90;;;;;;4970346;28;19929;-89
2023/03/14 10:17:17;;;;;;;;;;;9.10;99.90;;;;;;4969089;28;19927;-90
2023/03/14 10:19:55;;;;;;;;;;;9.10;99.90;;;;;;4972170;28;19994;-90
2023/03/14 10:22:22;;;;;;;;;;;9.10;99.90;;;;;;4971953;28;20510;-91
2023/03/14 10:24:52;;;;;;;;;;;9.10;99.90;;;;;;4972274;28;19930;-91
2023/03/14 10:27:21;;;;;;;;;;;9.10;99.90;;;;;;4968051;28;19925;-90
2023/03/14 10:29:54;;;;;;;;;;;9.20;99.90;;;;;;4968700;28;20066;-90
2023/03/14 10:32:22;;;;;;;;;;;9.20;99.90;;;;;;4969310;28;20009;-89
2023/03/14 10:35:04;;;;;;;;;;;9.20;99.90;;;;;;4971182;28;19933;-89
2023/03/14 10:37:31;;;;;;;;;;;9.30;99.90;;;;;;4967432;28;19985;-90
2023/03/14 10:40:05;;;;;;;;;;;9.30;99.90;;;;;;4967268;28;20017;-90
2023/03/14 10:42:33;;;;;;;;;;;9.30;99.90;;;;;;4967588;28;20293;-90
2023/03/14 10:45:03;;;;;;;;;;;9.30;99.90;;;;;;4982792;28;20416;-90
2023/03/14 10:47:30;;;;;;;;;;;9.40;99.90;;;;;;4966211;28;19941;-88
2023/03/14 10:49:57;;;;;;;;;;;9.40;99.90;;;;;;4961817;28;20018;-90
2023/03/14 10:52:25;;;;;;;;;;;9.40;99.90;;;;;;4963209;28;19926;-87
2023/03/14 10:54:55;;;;;;;;;;;9.40;99.90;;;;;;4966009;28;19997;-90
2023/03/14 10:57:22;;;;;;;;;;;9.50;99.90;;;;;;4967150;28;19930;-91
2023/03/14 10:59:49;;;;;;;;;;;9.50;99.90;;;;;;4966424;28;19970;-89
2023/03/14 11:02:29;;;;;;;;;;;9.50;99.90;;;;;;4968873;28;19982;-89
2023/03/14 11:05:04;;;;;;;;;;;9.50;99.90;;;;;;4968666;28;19926;-88
2023/03/14 11:07:32;;;;;;;;;;;9.50;99.90;;;;;;4966753;28;19973;-89
2023/03/14 11:10:01;;;;;;;;;;;9.50;99.90;;;;;;4968082;28;19933;-89
2023/03/14 11:12:37;;;;;;;;;;;9.60;99.90;;;;;;4968142;28;20021;-89
2023/03/14 11:15:08;;;;;;;;;;;9.60;99.90;;;;;;4968722;28;19934;-90
2023/03/14 11:17:40;;;;;;;;;;;9.60;99.90;;;;;;4982132;28;20405;-91
2023/03/14 11:20:18;;;;;;;;;;;9.60;99.90;;;;;;4982943;28;19926;-92
2023/03/14 11:22:48;;;;;;;;;;;9.70;99.90;;;;;;4971585;28;19976;-89
2023/03/14 11:25:19;;;;;;;;;;;9.70;99.90;;;;;;4971805;28;19926;-91
2023/03/14 11:27:48;;;;;;;;;;;9.70;99.90;;;;;;4983972;28;19926;-89
2023/03/14 11:30:19;;;;;;;;;;;9.70;99.90;;;;;;4967956;28;19926;-90
2023/03/14 11:32:51;;;;;;;;;;;9.70;99.90;;;;;;4970697;28;19930;-91
2023/03/14 11:35:20;;;;;;;;;;;9.70;99.90;;;;;;4966126;28;19926;-90
2023/03/14 11:37:49;;;;;;;;;;;9.80;99.90;;;;;;4972173;28;20528;-90
2023/03/14 11:40:18;;;;;;;;;;;9.80;99.90;;;;;;4965940;28;19930;-89
2023/03/14 11:42:49;;;;;;;;;;;9.80;99.90;;;;;;4963455;28;19926;-88
2023/03/14 11:45:17;;;;;;;;;;;9.80;99.90;;;;;;4974498;28;20025;-89
2023/03/14 11:47:46;;;;;;;;;;;9.80;99.90;;;;;;4972129;28;19926;-90
2023/03/14 11:50:16;;;;;;;;;;;9.80;99.90;;;;;;4972546;28;19941;-89
2023/03/14 11:52:47;;;;;;;;;;;9.80;99.90;;;;;;4973346;28;19926;-89
2023/03/14 11:55:18;;;;;;;;;;;9.90;99.90;;;;;;4987050;28;19937;-90
2023/03/14 11:57:45;;;;;;;;;;;9.90;99.90;;;;;;4970110;28;19977;-90
2023/03/14 12:00:17;;;;;;;;;;;9.90;99.90;;;;;;4971500;28;19937;-89
2023/03/14 12:02:46;;;;;;;;;;;9.80;99.90;;;;;;4969367;28;19941;-90
2023/03/14 12:05:38;;;;;;;;;;;9.80;99.90;;;;;;4972142;28;19933;-89
2023/03/14 12:08:20;;;;;;;;;;;9.80;99.90;;;;;;4967986;28;19934;-89
2023/03/14 12:10:49;;;;;;;;;;;9.90;99.90;;;;;;4979923;28;20029;-89
2023/03/14 12:13:16;;;;;;;;;;;9.90;99.90;;;;;;4986618;28;20012;-89
2023/03/14 12:15:48;;;;;;;;;;;9.80;99.90;;;;;;4965512;28;19934;-89
2023/03/14 12:18:19;;;;;;;;;;;9.90;99.90;;;;;;4971056;28;20348;-90
2023/03/14 12:20:54;;;;;;;;;;;9.90;99.90;;;;;;4969391;28;20308;-91
2023/03/14 12:23:21;;;;;;;;;;;9.90;99.90;;;;;;4971452;28;20049;-90
2023/03/14 12:25:48;;;;;;;;;;;9.80;99.90;;;;;;4970193;28;19930;-88
2023/03/14 12:28:19;;;;;;;;;;;9.80;99.90;;;;;;4971769;28;20356;-90
2023/03/14 12:30:46;;;;;;;;;;;9.80;99.90;;;;;;4982133;28;19926;-87
2023/03/14 12:33:34;;;;;;;;;;;9.80;99.90;;;;;;4977970;28;19934;-88
2023/03/14 12:36:11;;;;;;;;;;;9.80;99.90;;;;;;4966419;28;19934;-89
2023/03/14 12:38:45;;;;;;;;;;;9.80;99.90;;;;;;4974284;28;19969;-87
2023/03/14 12:41:15;;;;;;;;;;;9.80;99.90;;;;;;4964866;28;19926;-89
2023/03/14 12:43:42;;;;;;;;;;;9.80;99.90;;;;;;4967324;28;19933;-89
2023/03/14 12:46:21;;;;;;;;;;;9.80;99.90;;;;;;4970251;28;20033;-88
2023/03/14 12:48:49;;;;;;;;;;;9.70;99.90;;;;;;4974192;28;20005;-89
2023/03/14 12:51:18;;;;;;;;;;;9.70;99.90;;;;;;4975336;28;19933;-90
2023/03/14 12:53:59;;;;;;;;;;;9.70;99.90;;;;;;4970552;28;19927;-90
2023/03/14 12:56:39;;;;;;;;;;;9.70;99.90;;;;;;4974488;28;19934;-91
2023/03/14 12:59:14;;;;;;;;;;;9.70;99.90;;;;;;4976078;28;20309;-89
2023/03/14 13:01:47;;;;;;;;;;;9.70;99.90;;;;;;4967186;28;19926;-88
2023/03/14 13:04:14;;;;;;;;;;;9.70;99.90;;;;;;4972141;28;19930;-90
2023/03/14 13:06:54;;;;;;;;;;;9.60;99.90;;;;;;4974037;28;19934;-91
2023/03/14 13:09:39;;;;;;;;;;;9.60;99.90;;;;;;4976801;28;19984;-90
2023/03/14 13:12:10;;;;;;;;;;;9.60;99.90;;;;;;4989594;28;20274;-89
2023/03/14 13:14:38;;;;;;;;;;;9.60;99.90;;;;;;4970052;28;20025;-89
2023/03/14 13:17:06;;;;;;;;;;;9.60;99.90;;;;;;4976843;28;19934;-89
2023/03/14 13:19:34;;;;;;;;;;;9.60;99.90;;;;;;4973829;28;19926;-89
2023/03/14 13:22:04;;;;;;;;;;;9.60;99.90;;;;;;4969744;28;20016;-91
2023/03/14 13:24:34;;;;;;;;;;;9.60;99.90;;;;;;4968777;28;19934;-89
2023/03/14 13:27:01;;;;;;;;;;;9.60;99.90;;;;;;4975585;28;19937;-89
2023/03/14 13:29:31;;;;;;;;;;;9.50;99.90;;;;;;4973466;28;19926;-89
2023/03/14 13:31:59;;;;;;;;;;;9.50;99.90;;;;;;4982989;28;20447;-89
2023/03/14 13:34:26;;;;;;;;;;;9.50;99.90;;;;;;4973280;28;19926;-91
2023/03/14 13:36:53;;;;;;;;;;;9.40;99.90;;;;;;4971181;28;19961;-93
2023/03/14 13:39:24;;;;;;;;;;;9.40;99.90;;;;;;4966995;28;20020;-89
2023/03/14 13:41:51;;;;;;;;;;;9.40;99.90;;;;;;4969682;28;19938;-90
2023/03/14 13:44:19;;;;;;;;;;;9.30;99.90;;;;;;4986351;28;20021;-89
2023/03/14 13:46:46;;;;;;;;;;;9.30;99.90;;;;;;4973555;28;19926;-89
2023/03/14 13:49:18;;;;;;;;;;;9.30;99.90;;;;;;4969925;28;19926;-91
2023/03/14 13:51:45;;;;;;;;;;;9.30;99.90;;;;;;4971839;28;19959;-90
2023/03/14 13:54:16;;;;;;;;;;;9.20;99.90;;;;;;4975074;28;20368;-89
2023/03/14 13:56:44;;;;;;;;;;;9.20;99.90;;;;;;4973587;28;20137;-88
2023/03/14 13:59:22;;;;;;;;;;;9.20;99.90;;;;;;4969725;28;19938;-92
2023/03/14 14:01:49;;;;;;;;;;;9.20;99.90;;;;;;4971809;28;20392;-89
2023/03/14 14:04:16;;;;;;;;;;;9.20;99.90;;;;;;4970668;28;20822;-89
2023/03/14 14:06:46;;;;;;;;;;;9.20;99.90;;;;;;4968944;28;20222;-90
2023/03/14 14:09:15;;;;;;;;;;;9.20;99.90;;;;;;4976570;28;20255;-90
2023/03/14 14:11:45;;;;;;;;;;;9.20;99.90;;;;;;4968443;28;19934;-90
2023/03/14 14:14:14;;;;;;;;;;;9.10;99.90;;;;;;4969768;28;19932;-90
2023/03/14 14:16:42;;;;;;;;;;;9.10;99.90;;;;;;4984095;28;19928;-89
2023/03/14 14:19:09;;;;;;;;;;;9.10;99.90;;;;;;4964334;28;19938;-88
2023/03/14 14:21:36;;;;;;;;;;;9.00;99.90;;;;;;4969277;28;20252;-90
2023/03/14 14:24:04;;;;;;;;;;;9.00;99.90;;;;;;4968186;28;19934;-88
2023/03/14 14:26:32;;;;;;;;;;;9.00;99.90;;;;;;4971079;28;20013;-90
2023/03/14 14:29:02;;;;;;;;;;;9.00;99.90;;;;;;4967585;28;19926;-90
2023/03/14 14:31:29;;;;;;;;;;;8.90;99.90;;;;;;4966609;28;20016;-89
2023/03/14 14:33:56;;;;;;;;;;;8.90;99.90;;;;;;4969667;28;19957;-88
2023/03/14 14:36:24;;;;;;;;;;;8.90;99.90;;;;;;4970493;28;19926;-91
2023/03/14 14:38:52;;;;;;;;;;;8.90;99.90;;;;;;4968131;28;19933;-89
2023/03/14 14:41:20;;;;;;;;;;;8.80;99.90;;;;;;4967205;28;19932;-88
2023/03/14 14:43:47;;;;;;;;;;;8.80;99.90;;;;;;4968869;28;19926;-90
2023/03/14 14:46:18;;;;;;;;;;;8.80;99.90;;;;;;4969074;28;20013;-89
2023/03/14 14:48:45;;;;;;;;;;;8.80;99.90;;;;;;4966936;28;19930;-92
2023/03/14 14:51:12;;;;;;;;;;;8.70;99.90;;;;;;4972479;28;19926;-90